createdAt,value
2022-12-26T00:00:53.897Z,19.57
2022-12-26T00:03:23.399Z,21.17
2022-12-26T00:05:51.564Z,20.13
2022-12-26T00:08:19.831Z,23.37
2022-12-26T00:10:49.591Z,26.57
2022-12-26T00:13:39.913Z,23.40
2022-12-26T00:16:08.547Z,26.87
2022-12-26T00:18:36.763Z,26.30
2022-12-26T00:21:04.991Z,25.47
2022-12-26T00:23:33.604Z,25.00
2022-12-26T00:26:06.752Z,26.30
2022-12-26T00:28:34.972Z,26.57
2022-12-26T00:31:05.444Z,26.57
2022-12-26T00:33:34.430Z,27.47
2022-12-26T00:36:03.855Z,25.23
2022-12-26T00:38:32.046Z,26.53
2022-12-26T00:41:00.097Z,23.03
2022-12-26T00:43:29.423Z,24.33
2022-12-26T00:45:57.563Z,24.63
2022-12-26T00:48:25.592Z,22.87
2022-12-26T00:50:55.843Z,22.73
2022-12-26T00:53:24.876Z,22.17
2022-12-26T00:55:53.356Z,25.60
2022-12-26T00:58:22.823Z,22.90
2022-12-26T01:00:55.322Z,24.07
2022-12-26T01:03:24.055Z,21.63
2022-12-26T01:05:53.709Z,24.87
2022-12-26T01:08:24.837Z,24.40
2022-12-26T01:10:53.882Z,20.87
2022-12-26T01:13:22.014Z,21.70
2022-12-26T01:15:52.917Z,21.20
2022-12-26T01:18:21.941Z,21.60
2022-12-26T01:20:50.745Z,24.67
2022-12-26T01:23:19.590Z,23.90
2022-12-26T01:26:18.384Z,18.10
2022-12-26T01:28:36.126Z,19.77
2022-12-26T01:31:06.877Z,23.87
2022-12-26T01:33:35.299Z,19.23
2022-12-26T01:36:03.433Z,20.27
2022-12-26T01:38:31.450Z,21.10
2022-12-26T01:41:18.034Z,18.03
2022-12-26T01:43:55.986Z,20.07
2022-12-26T01:46:30.165Z,25.33
2022-12-26T01:49:01.931Z,16.50
2022-12-26T01:51:36.355Z,17.67
2022-12-26T01:54:39.093Z,19.77
2022-12-26T01:56:55.215Z,19.10
2022-12-26T01:59:27.727Z,17.67
2022-12-26T02:01:57.512Z,19.77
2022-12-26T02:04:47.608Z,17.07
2022-12-26T02:07:15.792Z,21.50
2022-12-26T02:09:44.109Z,18.80
2022-12-26T02:12:37.595Z,18.33
2022-12-26T02:15:09.152Z,16.40
2022-12-26T02:17:40.138Z,16.20
2022-12-26T02:20:23.084Z,16.67
2022-12-26T02:23:29.108Z,16.50
2022-12-26T02:26:27.774Z,13.73
2022-12-26T02:29:26.288Z,14.27
2022-12-26T02:32:05.715Z,17.00
2022-12-26T02:34:45.105Z,14.10
2022-12-26T02:37:35.921Z,14.60
2022-12-26T02:40:20.959Z,14.67
2022-12-26T02:42:59.273Z,14.97
2022-12-26T02:45:52.273Z,15.10
2022-12-26T02:48:32.655Z,17.67
2022-12-26T02:51:28.742Z,14.23
2022-12-26T02:54:24.947Z,17.97
2022-12-26T02:57:15.766Z,15.53
2022-12-26T03:00:09.888Z,17.47
2022-12-26T03:02:59.257Z,15.50
2022-12-26T03:05:49.670Z,16.13
2022-12-26T03:08:40.882Z,14.10
2022-12-26T03:11:26.109Z,18.30
2022-12-26T03:13:56.803Z,17.40
2022-12-26T03:16:44.103Z,14.97
2022-12-26T03:19:14.278Z,18.87
2022-12-26T03:21:46.418Z,14.10
2022-12-26T03:24:18.299Z,14.17
2022-12-26T03:26:50.818Z,15.50
2022-12-26T03:29:38.660Z,17.13
2022-12-26T03:32:09.256Z,15.07
2022-12-26T03:34:42.912Z,13.90
2022-12-26T03:37:47.839Z,14.07
2022-12-26T03:40:52.246Z,15.20
2022-12-26T03:43:52.545Z,17.30
2022-12-26T03:46:46.298Z,17.67
2022-12-26T03:49:39.898Z,13.93
2022-12-26T03:52:39.786Z,12.37
2022-12-26T03:55:31.840Z,15.27
2022-12-26T03:58:25.018Z,11.93
2022-12-26T04:01:13.365Z,10.73
2022-12-26T04:04:02.317Z,10.93
2022-12-26T04:06:54.261Z,8.47
2022-12-26T04:09:44.627Z,9.00
2022-12-26T04:12:35.121Z,12.70
2022-12-26T04:15:26.049Z,11.97
2022-12-26T04:18:16.862Z,10.07
2022-12-26T04:20:53.181Z,9.83
2022-12-26T04:23:56.529Z,9.40
2022-12-26T04:26:49.775Z,9.13
2022-12-26T04:29:35.124Z,10.67
2022-12-26T04:32:27.619Z,9.17
2022-12-26T04:35:18.848Z,8.03
2022-12-26T04:38:05.050Z,11.50
2022-12-26T04:40:54.866Z,10.53
2022-12-26T04:43:48.208Z,8.93
2022-12-26T04:46:20.987Z,9.57
2022-12-26T04:49:09.101Z,8.70
2022-12-26T04:51:38.054Z,8.73
2022-12-26T04:54:07.353Z,6.67
2022-12-26T04:56:35.761Z,8.13
2022-12-26T04:59:05.162Z,11.33
2022-12-26T05:01:50.595Z,11.77
2022-12-26T05:04:37.470Z,17.03
2022-12-26T05:07:29.953Z,16.20
2022-12-26T05:09:58.117Z,12.33
2022-12-26T05:12:26.210Z,7.40
2022-12-26T05:14:55.950Z,8.13
2022-12-26T05:17:44.579Z,6.40
2022-12-26T05:20:31.581Z,9.13
2022-12-26T05:23:19.461Z,5.90
2022-12-26T05:26:05.917Z,5.43
2022-12-26T05:28:43.185Z,5.17
2022-12-26T05:31:14.842Z,10.43
2022-12-26T05:34:00.821Z,9.07
2022-12-26T05:36:31.723Z,7.07
2022-12-26T05:39:00.106Z,6.93
2022-12-26T05:41:28.638Z,8.77
2022-12-26T05:43:56.676Z,7.60
2022-12-26T05:46:26.403Z,5.13
2022-12-26T05:48:54.512Z,7.10
2022-12-26T05:51:25.601Z,6.33
2022-12-26T05:53:54.329Z,7.20
2022-12-26T05:56:23.336Z,8.80
2022-12-26T05:58:56.330Z,8.30
2022-12-26T06:01:27.079Z,5.33
2022-12-26T06:03:57.494Z,7.37
2022-12-26T06:06:26.467Z,11.30
2022-12-26T06:08:57.346Z,6.73
2022-12-26T06:11:26.892Z,7.23
2022-12-26T06:13:55.597Z,7.33
2022-12-26T06:16:26.835Z,7.10
2022-12-26T06:18:57.038Z,8.00
2022-12-26T06:21:26.149Z,10.97
2022-12-26T06:23:54.180Z,7.57
2022-12-26T06:26:22.321Z,5.13
2022-12-26T06:28:50.405Z,10.47
2022-12-26T06:31:21.409Z,7.87
2022-12-26T06:33:51.770Z,6.77
2022-12-26T06:36:23.175Z,7.83
2022-12-26T06:38:51.526Z,6.97
2022-12-26T06:41:21.735Z,8.27
2022-12-26T06:43:50.210Z,5.67
2022-12-26T06:46:21.075Z,7.53
2022-12-26T06:48:49.600Z,7.20
2022-12-26T06:51:21.981Z,7.57
2022-12-26T06:53:50.990Z,10.93
2022-12-26T06:56:21.554Z,8.20
2022-12-26T06:58:53.109Z,11.87
2022-12-26T07:01:21.436Z,5.97
2022-12-26T07:03:51.958Z,6.67
2022-12-26T07:06:27.443Z,9.03
2022-12-26T07:08:58.035Z,5.80
2022-12-26T07:11:28.334Z,10.73
2022-12-26T07:13:57.249Z,8.83
2022-12-26T07:16:25.842Z,8.00
2022-12-26T07:18:55.046Z,9.60
2022-12-26T07:21:25.671Z,15.03
2022-12-26T07:23:54.631Z,6.93
2022-12-26T07:26:23.156Z,9.00
2022-12-26T07:28:54.955Z,9.97
2022-12-26T07:31:23.438Z,10.83
2022-12-26T07:33:56.125Z,10.53
2022-12-26T07:36:27.114Z,6.27
2022-12-26T07:38:55.413Z,11.70
2022-12-26T07:41:41.321Z,14.60
2022-12-26T07:44:10.480Z,9.37
2022-12-26T07:46:38.588Z,9.33
2022-12-26T07:49:07.054Z,7.03
2022-12-26T07:51:36.490Z,12.53
2022-12-26T07:54:10.649Z,5.63
2022-12-26T07:56:39.941Z,10.53
2022-12-26T07:59:08.044Z,12.97
2022-12-26T08:01:36.054Z,10.93
2022-12-26T08:04:04.239Z,9.80
2022-12-26T08:06:32.401Z,7.10
2022-12-26T08:09:01.943Z,6.57
2022-12-26T08:11:32.731Z,4.77
2022-12-26T08:14:00.831Z,6.13
2022-12-26T08:16:29.468Z,4.67
2022-12-26T08:18:57.445Z,6.67
2022-12-26T08:21:25.418Z,5.97
2022-12-26T08:23:53.666Z,7.00
2022-12-26T08:26:23.448Z,8.63
2022-12-26T08:28:52.722Z,13.40
2022-12-26T08:31:21.738Z,11.10
2022-12-26T08:33:50.495Z,8.10
2022-12-26T08:36:19.245Z,12.10
2022-12-26T08:38:47.762Z,10.63
2022-12-26T08:41:17.320Z,10.80
2022-12-26T08:46:38.043Z,10.20
2022-12-26T08:49:06.233Z,18.70
2022-12-26T08:51:34.421Z,13.27
2022-12-26T08:54:02.666Z,17.00
2022-12-26T08:56:30.796Z,17.53
2022-12-26T08:59:00.393Z,15.60
2022-12-26T09:01:30.464Z,15.17
2022-12-26T09:04:00.407Z,14.50
2022-12-26T09:06:30.103Z,12.77
2022-12-26T09:08:59.954Z,11.97
2022-12-26T09:11:28.804Z,15.27
2022-12-26T09:13:58.205Z,11.67
2022-12-26T09:16:35.609Z,18.60
2022-12-26T09:19:07.006Z,9.57
2022-12-26T09:21:35.032Z,12.53
2022-12-26T09:24:05.102Z,10.70
2022-12-26T09:26:33.964Z,10.80
2022-12-26T09:29:02.066Z,14.50
2022-12-26T09:31:33.083Z,8.80
2022-12-26T09:34:03.293Z,9.23
2022-12-26T09:36:33.382Z,9.33
2022-12-26T09:39:01.894Z,8.27
2022-12-26T09:41:49.186Z,12.00
2022-12-26T09:44:20.818Z,10.87
2022-12-26T09:47:00.113Z,11.07
2022-12-26T09:49:33.711Z,9.17
2022-12-26T09:52:06.421Z,6.13
2022-12-26T09:54:38.274Z,7.80
2022-12-26T09:57:15.261Z,10.80
2022-12-26T09:59:49.776Z,8.43
2022-12-26T10:02:23.723Z,14.03
2022-12-26T10:04:52.540Z,9.37
2022-12-26T10:07:28.101Z,14.63
2022-12-26T10:10:05.735Z,9.37
2022-12-26T10:12:43.641Z,11.03
2022-12-26T10:15:28.390Z,6.73
2022-12-26T10:18:09.090Z,6.87
2022-12-26T10:20:47.776Z,5.00
2022-12-26T10:23:33.202Z,8.00
2022-12-26T10:26:12.882Z,6.27
2022-12-26T10:28:46.408Z,8.47
2022-12-26T10:31:20.539Z,15.00
2022-12-26T10:33:55.315Z,8.30
2022-12-26T10:36:31.933Z,7.70
2022-12-26T10:39:02.119Z,6.73
2022-12-26T10:41:36.506Z,4.37
2022-12-26T10:44:09.839Z,10.07
2022-12-26T10:47:06.720Z,6.73
2022-12-26T10:49:37.182Z,9.73
2022-12-26T10:52:05.848Z,6.77
2022-12-26T10:54:34.138Z,8.37
2022-12-26T10:57:04.504Z,12.60
2022-12-26T10:59:41.854Z,17.97
2022-12-26T11:02:17.480Z,10.50
2022-12-26T11:05:48.499Z,6.17
2022-12-26T11:08:06.766Z,12.70
2022-12-26T11:10:35.116Z,7.50
2022-12-26T11:13:08.250Z,5.33
2022-12-26T11:15:40.967Z,4.27
2022-12-26T11:18:21.164Z,4.20
2022-12-26T11:20:51.952Z,10.07
2022-12-26T11:23:28.555Z,9.17
2022-12-26T11:25:58.070Z,5.33
2022-12-26T11:28:30.761Z,8.40
2022-12-26T11:31:00.095Z,2.87
2022-12-26T11:33:32.772Z,5.10
2022-12-26T11:36:21.915Z,1.30
2022-12-26T11:38:54.476Z,4.10
2022-12-26T11:41:39.955Z,5.53
2022-12-26T11:44:19.011Z,23.10
2022-12-26T11:46:52.723Z,3.97
2022-12-26T11:49:26.333Z,4.23
2022-12-26T11:51:59.651Z,6.27
2022-12-26T11:54:31.495Z,3.50
2022-12-26T11:57:16.655Z,5.87
2022-12-26T11:59:45.892Z,5.20
2022-12-26T12:02:29.304Z,6.50
2022-12-26T12:05:02.751Z,8.47
2022-12-26T12:07:53.569Z,3.80
2022-12-26T12:10:48.046Z,6.00
2022-12-26T12:13:27.376Z,6.87
2022-12-26T12:16:02.058Z,3.80
2022-12-26T12:18:44.920Z,8.10
2022-12-26T12:21:22.549Z,6.10
2022-12-26T12:24:26.782Z,4.80
2022-12-26T12:27:05.146Z,3.43
2022-12-26T12:30:11.579Z,6.80
2022-12-26T12:33:03.765Z,7.97
2022-12-26T12:35:43.029Z,7.87
2022-12-26T12:38:31.449Z,4.90
2022-12-26T12:41:24.102Z,3.87
2022-12-26T12:44:00.691Z,2.97
2022-12-26T12:46:38.826Z,4.07
2022-12-26T12:49:32.519Z,4.87
2022-12-26T12:59:41.655Z,5.23
2022-12-26T13:02:20.733Z,7.67
2022-12-26T13:04:55.815Z,4.67
2022-12-26T13:07:30.602Z,2.73
2022-12-26T13:10:01.949Z,5.50
2022-12-26T13:12:40.226Z,16.20
2022-12-26T13:15:11.346Z,3.57
2022-12-26T13:17:58.987Z,9.53
2022-12-26T13:20:35.451Z,4.77
2022-12-26T13:23:27.824Z,9.57
2022-12-26T13:26:07.007Z,3.73
2022-12-26T13:28:44.032Z,7.07
2022-12-26T13:31:16.835Z,9.33
2022-12-26T13:33:46.513Z,7.37
2022-12-26T13:36:37.347Z,6.00
2022-12-26T13:39:40.376Z,5.40
2022-12-26T13:42:41.647Z,4.10
2022-12-26T13:45:49.056Z,7.60
2022-12-26T13:49:09.060Z,2.37
2022-12-26T13:51:55.777Z,7.73
2022-12-26T13:54:28.004Z,6.70
2022-12-26T13:57:26.172Z,5.10
2022-12-26T14:00:20.322Z,5.50
2022-12-26T14:03:26.059Z,4.80
2022-12-26T14:06:18.923Z,7.37
2022-12-26T14:09:04.844Z,7.90
2022-12-26T14:12:02.115Z,9.80
2022-12-26T14:14:49.528Z,5.20
2022-12-26T14:17:34.569Z,8.77
2022-12-26T14:20:16.234Z,10.17
2022-12-26T14:22:57.342Z,10.47
2022-12-26T14:25:33.101Z,4.57
2022-12-26T14:28:12.127Z,8.20
2022-12-26T14:30:58.369Z,8.77
2022-12-26T14:33:32.413Z,9.07
2022-12-26T14:36:15.802Z,10.13
2022-12-26T14:38:52.048Z,10.37
2022-12-26T14:41:39.059Z,13.23
2022-12-26T14:44:18.990Z,11.60
2022-12-26T14:47:06.754Z,8.30
2022-12-26T14:49:43.390Z,13.13
2022-12-26T14:52:46.592Z,7.40
2022-12-26T14:55:50.582Z,9.70
2022-12-26T14:58:41.673Z,8.57
2022-12-26T15:02:00.867Z,9.60
2022-12-26T15:05:00.662Z,9.17
2022-12-26T15:08:07.842Z,7.47
2022-12-26T15:11:27.012Z,9.60
2022-12-26T15:47:35.559Z,12.47
2022-12-26T15:50:24.641Z,10.57
2022-12-26T15:53:13.715Z,10.90
2022-12-26T15:56:15.435Z,7.20
2022-12-26T15:59:34.057Z,11.73
2022-12-26T16:02:14.679Z,7.33
2022-12-26T16:05:12.968Z,7.90
2022-12-26T16:07:52.993Z,9.50
2022-12-26T16:10:33.345Z,7.23
2022-12-26T16:13:08.478Z,7.20
2022-12-26T16:15:47.105Z,7.33
2022-12-26T16:18:23.876Z,7.10
2022-12-26T16:21:14.483Z,5.23
2022-12-26T16:23:51.736Z,7.43
2022-12-26T16:26:31.836Z,7.40
2022-12-26T16:40:45.753Z,10.20
2022-12-26T16:43:29.062Z,8.57
2022-12-26T16:46:27.281Z,8.40
2022-12-26T16:49:01.474Z,12.07
2022-12-26T16:51:44.508Z,5.77
2022-12-26T16:54:38.936Z,11.10
2022-12-26T16:57:15.040Z,10.17
2022-12-26T16:59:57.197Z,7.83
2022-12-26T17:08:36.063Z,3.83
2022-12-26T17:11:06.400Z,7.50
2022-12-26T17:13:35.214Z,5.50
2022-12-26T17:16:11.452Z,11.53
2022-12-26T17:18:47.389Z,4.60
2022-12-26T17:21:27.331Z,11.10
2022-12-26T17:24:26.431Z,17.07
2022-12-26T17:27:16.950Z,6.70
2022-12-26T17:29:57.136Z,7.30
2022-12-26T17:32:38.774Z,5.10
2022-12-26T17:35:14.660Z,6.67
2022-12-26T17:37:43.403Z,9.80
2022-12-26T17:40:27.306Z,7.50
2022-12-26T17:43:06.370Z,4.37
2022-12-26T17:45:57.877Z,9.50
2022-12-26T17:48:27.151Z,5.73
2022-12-26T17:50:59.431Z,6.20
2022-12-26T17:53:32.282Z,6.90
2022-12-26T17:56:04.829Z,5.20
2022-12-26T17:58:35.333Z,3.53
2022-12-26T18:01:04.463Z,7.13
2022-12-26T18:03:33.178Z,5.57
2022-12-26T18:06:02.266Z,7.63
2022-12-26T18:08:33.472Z,3.80
2022-12-26T18:11:02.930Z,7.57
2022-12-26T18:13:31.391Z,5.83
2022-12-26T18:16:02.051Z,3.83
2022-12-26T18:18:37.812Z,7.53
2022-12-26T18:21:08.584Z,5.27
2022-12-26T18:23:37.371Z,4.93
2022-12-26T18:26:14.410Z,6.57
2022-12-26T18:28:43.994Z,14.30
2022-12-26T18:31:17.462Z,3.43
2022-12-26T18:33:45.700Z,7.40
2022-12-26T18:36:15.328Z,8.90
2022-12-26T18:38:44.304Z,2.87
2022-12-26T18:41:15.999Z,8.30
2022-12-26T18:43:44.636Z,10.20
2022-12-26T18:46:17.789Z,7.70
2022-12-26T18:48:46.204Z,8.43
2022-12-26T18:51:14.515Z,11.13
2022-12-26T18:54:03.888Z,9.20
2022-12-26T18:56:32.565Z,6.20
2022-12-26T18:59:01.484Z,7.23
2022-12-26T19:01:36.988Z,4.37
2022-12-26T19:04:07.520Z,10.13
2022-12-26T19:06:36.065Z,4.93
2022-12-26T19:09:06.901Z,4.93
2022-12-26T19:11:35.757Z,5.63
2022-12-26T19:14:10.644Z,4.57
2022-12-26T19:16:51.926Z,8.00
2022-12-26T19:19:20.507Z,5.63
2022-12-26T19:21:52.537Z,7.93
2022-12-26T19:24:20.820Z,11.13
2022-12-26T19:26:49.110Z,7.93
2022-12-26T19:29:17.473Z,5.40
2022-12-26T19:31:50.331Z,12.20
2022-12-26T19:34:18.935Z,9.50
2022-12-26T19:36:47.131Z,7.67
2022-12-26T19:39:18.138Z,4.53
2022-12-26T19:41:46.377Z,10.27
2022-12-26T19:44:14.437Z,5.20
2022-12-26T19:46:42.737Z,4.27
2022-12-26T19:49:13.982Z,5.93
2022-12-26T19:51:43.465Z,8.93
2022-12-26T19:54:11.480Z,9.10
2022-12-26T19:56:39.770Z,8.27
2022-12-26T19:59:07.884Z,11.37
2022-12-26T20:01:38.635Z,14.27
2022-12-26T20:04:07.224Z,11.20
2022-12-26T20:06:39.021Z,10.40
2022-12-26T20:09:10.532Z,8.07
2022-12-26T20:11:41.275Z,11.30
2022-12-26T20:14:13.987Z,10.40
2022-12-26T20:19:31.705Z,10.63
2022-12-26T20:22:01.089Z,9.47
2022-12-26T20:24:29.184Z,10.57
2022-12-26T20:26:57.424Z,8.90
2022-12-26T20:29:25.740Z,7.00
2022-12-26T20:31:55.402Z,8.33
2022-12-26T20:34:23.565Z,12.40
2022-12-26T20:36:51.722Z,6.37
2022-12-26T20:39:22.909Z,9.90
2022-12-26T20:41:50.837Z,11.67
2022-12-26T20:44:19.466Z,15.33
2022-12-26T20:46:48.206Z,11.60
2022-12-26T20:49:16.460Z,8.80
2022-12-26T20:51:46.429Z,7.03
2022-12-26T20:54:16.365Z,13.90
2022-12-26T20:56:47.303Z,8.63
2022-12-26T20:59:15.380Z,13.13
2022-12-26T21:01:43.627Z,11.93
2022-12-26T21:04:18.534Z,16.80
2022-12-26T21:06:47.701Z,9.33
2022-12-26T21:09:16.091Z,10.30
2022-12-26T21:11:46.031Z,11.10
2022-12-26T21:14:17.740Z,10.10
2022-12-26T21:16:48.386Z,10.57
2022-12-26T21:19:16.981Z,17.37
2022-12-26T21:21:46.763Z,14.23
2022-12-26T21:24:18.483Z,12.37
2022-12-26T21:26:47.457Z,13.17
2022-12-26T21:29:19.866Z,10.43
2022-12-26T21:31:48.728Z,11.27
2022-12-26T21:34:19.452Z,11.03
2022-12-26T21:37:08.134Z,8.00
2022-12-26T21:39:38.023Z,9.93
2022-12-26T21:42:07.424Z,8.33
2022-12-26T21:44:40.567Z,12.50
2022-12-26T21:47:08.885Z,7.47
2022-12-26T21:49:37.154Z,8.70
2022-12-26T21:52:06.343Z,11.20
2022-12-26T21:54:52.287Z,9.83
2022-12-26T21:57:20.786Z,11.27
2022-12-26T21:59:59.807Z,4.97
2022-12-26T22:02:47.802Z,9.33
2022-12-26T22:05:16.416Z,5.70
2022-12-26T22:07:44.708Z,7.43
2022-12-26T22:10:34.950Z,8.10
2022-12-26T22:13:03.030Z,6.60
2022-12-26T22:15:50.283Z,16.33
2022-12-26T22:18:19.427Z,11.57
2022-12-26T22:20:47.724Z,9.77
2022-12-26T22:23:15.711Z,9.43
2022-12-26T22:25:44.419Z,12.20
2022-12-26T22:28:12.480Z,11.60
2022-12-26T22:30:48.286Z,8.47
2022-12-26T22:33:16.352Z,11.43
2022-12-26T22:35:44.393Z,11.97
2022-12-26T22:38:12.444Z,10.87
2022-12-26T22:40:40.655Z,11.77
2022-12-26T22:43:08.911Z,12.50
2022-12-26T22:45:42.836Z,16.53
2022-12-26T22:48:10.853Z,8.27
2022-12-26T22:50:38.836Z,12.60
2022-12-26T22:53:09.326Z,9.53
2022-12-26T22:55:37.792Z,17.03
2022-12-26T22:58:05.905Z,10.40
2022-12-26T23:00:33.834Z,7.73
2022-12-26T23:03:03.181Z,8.17
2022-12-26T23:05:31.606Z,10.00
2022-12-26T23:08:00.118Z,7.47
2022-12-26T23:10:28.844Z,13.60
2022-12-26T23:12:57.487Z,10.50
2022-12-26T23:15:28.325Z,13.50
2022-12-26T23:18:20.301Z,10.63
2022-12-26T23:21:07.135Z,10.87
2022-12-26T23:23:35.943Z,14.03
2022-12-26T23:26:04.043Z,17.10
2022-12-26T23:28:49.528Z,13.90
2022-12-26T23:31:17.562Z,9.93
2022-12-26T23:33:45.579Z,11.50
2022-12-26T23:36:14.975Z,15.67
2022-12-26T23:38:43.034Z,7.03
2022-12-26T23:41:11.176Z,14.63
2022-12-26T23:43:39.202Z,11.03
2022-12-26T23:46:10.788Z,18.60
2022-12-26T23:48:38.851Z,16.37
2022-12-26T23:51:08.338Z,10.03
2022-12-26T23:53:38.058Z,10.43
2022-12-26T23:56:08.633Z,9.27
2022-12-26T23:58:38.142Z,11.83
